Time;durP1;ratioP1;P1;durP2;ratioP2;P2;SDS_P1;SDS_P2;PMS_P1;PMS_P2;Temp;Humidity;BMP_temperature;BMP_pressure;BME280_temperature;BME280_humidity;BME280_pressure;Samples;Min_cycle;Max_cycle;Signal;HPM_P1;HPM_P2
2022/04/08 00:01:38;;;;;;;3.25;1.52;;;9.90;40.40;;;;;;5063751;28;20230;-77
2022/04/08 00:04:06;;;;;;;7.13;1.25;;;9.90;40.40;;;;;;5058558;28;20211;-77
2022/04/08 00:06:33;;;;;;;3.78;1.10;;;9.90;40.40;;;;;;5079717;22;20254;-81
2022/04/08 00:09:00;;;;;;;2.63;1.10;;;9.90;40.80;;;;;;5048667;28;20211;-80
2022/04/08 00:11:29;;;;;;;7.53;1.20;;;10.00;40.20;;;;;;5042931;28;20257;-79
2022/04/08 00:13:56;;;;;;;1.65;1.00;;;10.00;40.10;;;;;;5042775;28;20225;-80
2022/04/08 00:16:23;;;;;;;3.65;1.00;;;10.00;40.10;;;;;;5046814;28;20231;-80
2022/04/08 00:18:50;;;;;;;3.88;1.40;;;9.90;41.60;;;;;;5029166;28;20270;-80
2022/04/08 00:21:17;;;;;;;7.22;1.67;;;9.90;41.30;;;;;;5025214;28;20211;-79
2022/04/08 00:23:45;;;;;;;4.70;1.00;;;9.90;41.50;;;;;;5026335;28;20288;-79
2022/04/08 00:26:12;;;;;;;3.45;1.50;;;9.90;41.90;;;;;;5024132;28;20259;-78
2022/04/08 00:28:41;;;;;;;4.93;1.77;;;9.90;42.20;;;;;;5022816;28;20243;-80
2022/04/08 00:31:08;;;;;;;3.58;1.00;;;9.80;42.40;;;;;;5036955;28;20230;-79
2022/04/08 00:33:35;;;;;;;4.88;2.35;;;9.80;42.30;;;;;;5044890;28;20218;-80
2022/04/08 00:36:02;;;;;;;3.20;1.80;;;9.90;42.80;;;;;;5033659;28;20234;-80
2022/04/08 00:38:29;;;;;;;1.77;1.00;;;9.90;42.70;;;;;;5025382;28;20234;-80
2022/04/08 00:40:56;;;;;;;7.40;1.17;;;9.80;42.80;;;;;;5028335;28;20208;-81
2022/04/08 00:43:33;;;;;;;5.38;1.10;;;9.70;43.00;;;;;;5027884;28;20212;-79
2022/04/08 00:46:02;;;;;;;2.25;1.10;;;9.70;42.70;;;;;;5028133;28;20223;-80
2022/04/08 00:48:29;;;;;;;4.32;1.67;;;9.70;42.80;;;;;;5032967;28;20191;-80
2022/04/08 00:50:56;;;;;;;4.45;1.25;;;9.70;41.40;;;;;;5039401;28;20207;-80
2022/04/08 00:53:24;;;;;;;2.30;0.93;;;9.60;41.70;;;;;;5045354;28;20227;-79
2022/04/08 00:55:51;;;;;;;5.63;1.30;;;9.60;40.20;;;;;;5044720;28;20776;-80
2022/04/08 00:58:18;;;;;;;7.13;2.20;;;9.60;40.20;;;;;;5044837;28;20226;-79
2022/04/08 01:00:46;;;;;;;7.60;1.48;;;9.60;40.20;;;;;;5038947;28;20239;-79
2022/04/08 01:03:14;;;;;;;4.95;1.15;;;9.50;40.80;;;;;;5033668;28;20267;-81
2022/04/08 01:05:41;;;;;;;3.88;1.38;;;9.60;41.50;;;;;;5025167;28;20235;-79
2022/04/08 01:08:11;;;;;;;2.88;1.25;;;9.60;42.80;;;;;;5022375;28;20284;-79
2022/04/08 01:10:39;;;;;;;3.63;1.13;;;9.70;42.60;;;;;;5027045;28;20210;-80
2022/04/08 01:13:06;;;;;;;6.45;1.25;;;9.60;43.20;;;;;;5042435;28;20270;-79
2022/04/08 01:15:33;;;;;;;5.28;1.33;;;9.60;43.90;;;;;;5039800;28;20254;-80
2022/04/08 01:18:00;;;;;;;3.88;1.40;;;9.70;44.70;;;;;;5024617;28;20297;-79
2022/04/08 01:20:28;;;;;;;4.82;1.42;;;9.70;45.10;;;;;;5022726;28;20480;-78
2022/04/08 01:22:55;;;;;;;5.90;1.15;;;9.70;45.10;;;;;;5043429;28;20288;-79
2022/04/08 01:25:23;;;;;;;3.95;1.38;;;9.70;44.90;;;;;;5044624;28;20286;-78
2022/04/08 01:27:50;;;;;;;9.48;1.50;;;9.70;45.20;;;;;;5027611;28;20277;-80
2022/04/08 01:30:17;;;;;;;4.65;1.10;;;9.70;44.70;;;;;;5025446;28;20216;-79
2022/04/08 01:32:44;;;;;;;2.83;1.08;;;9.70;44.50;;;;;;5044855;28;20674;-79
2022/04/08 01:35:12;;;;;;;2.97;1.10;;;9.80;44.40;;;;;;5052823;28;20250;-81
2022/04/08 01:37:38;;;;;;;3.08;1.10;;;9.70;44.50;;;;;;5042153;28;20287;-80
2022/04/08 01:40:07;;;;;;;7.03;1.33;;;9.70;44.50;;;;;;5036976;28;20236;-80
2022/04/08 01:42:35;;;;;;;3.22;1.23;;;9.70;44.70;;;;;;5051430;28;20267;-80
2022/04/08 01:45:02;;;;;;;4.13;1.35;;;9.70;44.80;;;;;;5057667;28;20246;-79
2022/04/08 01:47:29;;;;;;;6.30;1.25;;;9.70;44.60;;;;;;5048708;28;20235;-80
2022/04/08 01:49:56;;;;;;;4.50;1.13;;;9.70;44.60;;;;;;5036953;28;20219;-79
2022/04/08 01:52:23;;;;;;;4.38;1.10;;;9.70;44.80;;;;;;5027944;28;20212;-80
2022/04/08 01:54:50;;;;;;;3.45;1.27;;;9.60;44.70;;;;;;5036238;28;20184;-80
2022/04/08 01:57:18;;;;;;;4.20;1.25;;;9.60;44.90;;;;;;5039500;28;20204;-79
2022/04/08 01:59:47;;;;;;;4.85;1.10;;;9.60;45.10;;;;;;5039830;28;20212;-80
2022/04/08 02:02:14;;;;;;;5.00;1.20;;;9.60;45.10;;;;;;5027836;28;20266;-80
2022/04/08 02:04:41;;;;;;;2.22;0.88;;;9.60;44.70;;;;;;5031842;28;20238;-80
2022/04/08 02:07:08;;;;;;;6.82;1.10;;;9.60;44.80;;;;;;5044362;28;20239;-80
2022/04/08 02:09:35;;;;;;;4.15;1.30;;;9.60;44.60;;;;;;5031715;28;20223;-80
2022/04/08 02:12:02;;;;;;;6.25;1.20;;;9.60;44.50;;;;;;5025025;28;20574;-80
2022/04/08 02:14:29;;;;;;;6.35;1.20;;;9.50;44.60;;;;;;5025676;28;20619;-80
2022/04/08 02:16:57;;;;;;;3.63;1.05;;;9.60;45.10;;;;;;5026999;28;20227;-81
2022/04/08 02:19:24;;;;;;;4.50;1.40;;;9.60;44.90;;;;;;5025373;28;20289;-81
2022/04/08 02:21:51;;;;;;;5.55;1.52;;;9.50;44.00;;;;;;5024377;28;20212;-81
2022/04/08 02:24:21;;;;;;;5.15;1.80;;;9.50;43.80;;;;;;5034341;28;20273;-79
2022/04/08 02:26:48;;;;;;;5.65;1.13;;;9.60;44.00;;;;;;5043136;28;20262;-80
2022/04/08 02:29:15;;;;;;;3.78;1.20;;;9.50;43.90;;;;;;5042016;28;20203;-80
2022/04/08 02:31:42;;;;;;;3.42;0.80;;;9.50;44.20;;;;;;5046674;28;20200;-80
2022/04/08 02:34:11;;;;;;;5.05;1.17;;;9.50;44.60;;;;;;5041079;28;20258;-80
2022/04/08 02:36:37;;;;;;;4.65;1.38;;;9.50;44.50;;;;;;5041423;28;20250;-80
2022/04/08 02:39:04;;;;;;;4.70;1.42;;;9.50;45.00;;;;;;5041677;28;20250;-80
2022/04/08 02:41:31;;;;;;;4.18;1.58;;;9.50;45.40;;;;;;5042529;28;20278;-80
2022/04/08 02:43:58;;;;;;;4.82;1.20;;;9.40;45.40;;;;;;5038205;28;20212;-79
2022/04/08 02:46:25;;;;;;;3.72;0.95;;;9.40;45.60;;;;;;5021857;28;20312;-80
2022/04/08 02:48:52;;;;;;;2.33;0.95;;;9.40;45.20;;;;;;5025407;28;20200;-80
2022/04/08 02:51:21;;;;;;;1.77;0.85;;;9.40;44.80;;;;;;5046663;28;20213;-80
2022/04/08 02:53:48;;;;;;;6.72;1.08;;;9.50;44.40;;;;;;5043356;28;20617;-80
2022/04/08 02:56:15;;;;;;;3.15;1.02;;;9.40;44.40;;;;;;5048620;28;20238;-79
2022/04/08 02:58:42;;;;;;;2.65;0.95;;;9.50;45.00;;;;;;5045508;28;20226;-81
2022/04/08 03:01:10;;;;;;;3.35;1.17;;;9.50;44.20;;;;;;5026384;28;20203;-80
2022/04/08 03:03:37;;;;;;;3.10;1.50;;;9.40;44.90;;;;;;5027985;28;20212;-80
2022/04/08 03:06:03;;;;;;;4.45;1.05;;;9.40;45.20;;;;;;5045383;28;20322;-80
2022/04/08 03:08:32;;;;;;;5.28;1.17;;;9.40;45.00;;;;;;5047313;28;20207;-80
2022/04/08 03:10:59;;;;;;;6.00;1.30;;;9.30;45.50;;;;;;5046137;28;20205;-81
2022/04/08 03:13:26;;;;;;;5.82;1.60;;;9.20;45.60;;;;;;5051265;28;20202;-80
2022/04/08 03:15:53;;;;;;;4.03;1.13;;;9.20;45.90;;;;;;5032933;28;20252;-80
2022/04/08 03:18:20;;;;;;;7.05;1.40;;;9.20;45.70;;;;;;5021788;28;20261;-80
2022/04/08 03:20:48;;;;;;;2.38;1.05;;;9.20;45.80;;;;;;5030645;28;20299;-80
2022/04/08 03:23:15;;;;;;;3.90;1.02;;;9.10;46.00;;;;;;5030251;28;20208;-80
2022/04/08 03:25:43;;;;;;;5.97;1.45;;;9.10;46.30;;;;;;5032373;28;20756;-80
2022/04/08 03:28:10;;;;;;;4.60;1.52;;;9.10;45.40;;;;;;5049003;28;20199;-79
2022/04/08 03:30:38;;;;;;;2.15;1.20;;;9.10;45.60;;;;;;5051567;28;20229;-80
2022/04/08 03:33:05;;;;;;;6.32;1.90;;;9.00;45.20;;;;;;5037308;28;20211;-81
2022/04/08 03:35:32;;;;;;;5.60;1.30;;;9.00;45.20;;;;;;5032037;28;20231;-81
2022/04/08 03:38:00;;;;;;;7.90;2.20;;;9.00;44.60;;;;;;5039090;28;20207;-81
2022/04/08 03:40:27;;;;;;;1.15;0.80;;;9.00;45.00;;;;;;5045134;28;20302;-79
2022/04/08 03:42:55;;;;;;;5.35;1.58;;;9.10;44.60;;;;;;5030017;28;20200;-80
2022/04/08 03:45:22;;;;;;;4.85;1.30;;;9.10;44.30;;;;;;5040344;28;20309;-80
2022/04/08 03:47:49;;;;;;;3.50;1.63;;;9.00;44.20;;;;;;5041307;28;20210;-80
2022/04/08 03:50:16;;;;;;;5.53;1.60;;;9.10;43.80;;;;;;5041618;28;20211;-81
2022/04/08 03:52:43;;;;;;;6.63;1.23;;;9.00;44.30;;;;;;5044429;28;20188;-80
2022/04/08 03:55:11;;;;;;;3.58;1.42;;;9.00;44.50;;;;;;5040946;28;20753;-80
2022/04/08 03:57:37;;;;;;;4.50;1.40;;;9.00;44.00;;;;;;5042974;28;20203;-79
2022/04/08 04:00:08;;;;;;;4.88;1.45;;;9.00;44.00;;;;;;5043414;28;20322;-80
2022/04/08 04:02:35;;;;;;;3.83;1.20;;;9.00;44.00;;;;;;5035865;28;20204;-80
2022/04/08 04:05:02;;;;;;;4.30;1.35;;;9.00;43.70;;;;;;5022046;28;20537;-79
2022/04/08 04:07:29;;;;;;;7.60;1.48;;;9.00;43.70;;;;;;5022006;28;20574;-81
2022/04/08 04:09:58;;;;;;;9.15;1.60;;;9.00;43.40;;;;;;5030371;28;20235;-80
2022/04/08 04:12:26;;;;;;;4.20;1.60;;;9.00;43.10;;;;;;5041849;28;20199;-80
2022/04/08 04:14:53;;;;;;;5.05;1.50;;;9.00;43.70;;;;;;5047475;28;20360;-79
2022/04/08 04:17:21;;;;;;;3.83;1.02;;;9.00;43.80;;;;;;5041722;28;20206;-81
2022/04/08 04:19:49;;;;;;;3.90;1.50;;;9.00;44.00;;;;;;5042625;28;20231;-81
2022/04/08 04:22:16;;;;;;;4.95;1.23;;;9.00;44.10;;;;;;5042823;28;20199;-80
2022/04/08 04:24:43;;;;;;;3.58;1.48;;;9.00;44.80;;;;;;5043924;28;20210;-79
2022/04/08 04:27:10;;;;;;;9.50;1.50;;;9.00;44.30;;;;;;5032264;28;20322;-80
2022/04/08 04:29:37;;;;;;;4.80;2.30;;;8.90;44.00;;;;;;5022236;28;20231;-81
2022/04/08 04:32:05;;;;;;;4.63;1.40;;;8.90;44.30;;;;;;5022536;28;20204;-79
2022/04/08 04:34:36;;;;;;;3.63;1.23;;;8.90;44.40;;;;;;5020314;28;20223;-79
2022/04/08 04:37:03;;;;;;;4.18;1.55;;;8.90;44.20;;;;;;5019615;28;20242;-79
2022/04/08 04:39:30;;;;;;;6.07;1.40;;;8.90;44.40;;;;;;5028253;28;20243;-80
2022/04/08 04:41:57;;;;;;;4.47;1.55;;;8.90;44.30;;;;;;5051177;28;20250;-80
2022/04/08 04:44:26;;;;;;;2.65;1.30;;;8.90;44.40;;;;;;5053885;28;20227;-79
2022/04/08 04:46:54;;;;;;;10.02;1.55;;;8.90;44.10;;;;;;5054145;28;20235;-78
2022/04/08 04:49:21;;;;;;;3.42;2.20;;;8.90;44.40;;;;;;5055291;28;20222;-80
2022/04/08 04:51:49;;;;;;;3.47;1.40;;;8.90;44.50;;;;;;5044853;28;20215;-80
2022/04/08 04:54:17;;;;;;;3.88;1.50;;;8.90;44.40;;;;;;5036753;28;20227;-78
2022/04/08 04:56:44;;;;;;;3.63;1.40;;;8.90;44.40;;;;;;5021626;28;20223;-79
2022/04/08 04:59:11;;;;;;;3.95;1.40;;;8.90;44.60;;;;;;5027991;28;20688;-80
2022/04/08 05:01:38;;;;;;;5.50;1.40;;;8.90;44.70;;;;;;5049974;28;20482;-78
2022/04/08 05:04:06;;;;;;;6.95;1.63;;;8.90;44.70;;;;;;5053153;28;20202;-80
2022/04/08 05:06:34;;;;;;;6.82;1.73;;;8.90;45.10;;;;;;5037061;28;20268;-79
2022/04/08 05:09:05;;;;;;;3.90;1.65;;;8.90;44.60;;;;;;5029775;28;20234;-79
2022/04/08 05:11:32;;;;;;;4.20;1.50;;;9.00;45.00;;;;;;5030302;28;20656;-79
2022/04/08 05:14:00;;;;;;;2.00;1.33;;;9.00;44.80;;;;;;5029889;28;20227;-79
2022/04/08 05:16:27;;;;;;;2.85;1.40;;;9.00;44.90;;;;;;5042922;28;20227;-79
2022/04/08 05:18:54;;;;;;;4.80;1.40;;;9.00;45.00;;;;;;5051506;28;20199;-80
2022/04/08 05:21:22;;;;;;;6.38;1.50;;;9.10;44.80;;;;;;5049211;28;20270;-79
2022/04/08 05:24:03;;;;;;;7.40;1.35;;;9.10;44.60;;;;;;5050641;28;20294;-80
2022/04/08 05:26:34;;;;;;;4.97;1.50;;;9.10;44.60;;;;;;5052372;28;20226;-79
2022/04/08 05:29:01;;;;;;;7.25;1.40;;;9.20;44.50;;;;;;5046021;28;20223;-79
2022/04/08 05:31:27;;;;;;;3.92;1.13;;;9.20;44.60;;;;;;5046756;28;20622;-79
2022/04/08 05:33:54;;;;;;;5.22;1.42;;;9.20;44.50;;;;;;5054728;28;20227;-79
2022/04/08 05:36:21;;;;;;;8.13;1.80;;;9.20;44.70;;;;;;5046223;28;20234;-79
2022/04/08 05:38:49;;;;;;;4.82;1.30;;;9.20;44.70;;;;;;5048974;28;20302;-81
2022/04/08 05:41:16;;;;;;;5.93;1.80;;;9.20;45.30;;;;;;5043483;28;20304;-79
2022/04/08 05:43:45;;;;;;;6.60;1.20;;;9.30;45.30;;;;;;5042962;28;20211;-79
2022/04/08 05:46:12;;;;;;;4.72;1.58;;;9.30;45.20;;;;;;5053453;28;20298;-79
2022/04/08 05:48:39;;;;;;;2.85;1.42;;;9.40;45.10;;;;;;5047350;28;20211;-79
2022/04/08 05:51:08;;;;;;;2.50;1.80;;;9.40;45.40;;;;;;5049590;28;20233;-80
2022/04/08 05:53:35;;;;;;;2.83;1.60;;;9.40;45.00;;;;;;5049364;28;20211;-80
2022/04/08 05:56:03;;;;;;;5.85;1.30;;;9.40;45.00;;;;;;5046127;28;20251;-79
2022/04/08 05:58:30;;;;;;;4.07;2.20;;;9.40;44.90;;;;;;5048874;28;20215;-81
2022/04/08 06:00:59;;;;;;;5.22;1.60;;;9.40;44.90;;;;;;5047357;28;20251;-79
2022/04/08 06:03:26;;;;;;;4.60;1.30;;;9.50;45.00;;;;;;5050867;28;20226;-80
2022/04/08 06:05:53;;;;;;;5.18;1.75;;;9.50;44.90;;;;;;5066011;22;20227;-77
2022/04/08 06:08:20;;;;;;;5.07;1.73;;;9.50;44.70;;;;;;5053648;28;20207;-77
2022/04/08 06:10:47;;;;;;;4.70;1.40;;;9.60;45.10;;;;;;5046428;28;20239;-78
2022/04/08 06:13:14;;;;;;;6.65;1.85;;;9.60;44.90;;;;;;5039774;28;20215;-76
2022/04/08 06:15:40;;;;;;;5.57;1.60;;;9.60;45.10;;;;;;5058812;28;20266;-77
2022/04/08 06:18:12;;;;;;;7.90;1.60;;;9.50;44.60;;;;;;5058298;28;20696;-77
2022/04/08 06:20:39;;;;;;;2.45;1.15;;;9.60;43.70;;;;;;5019960;28;20332;-76
2022/04/08 06:23:06;;;;;;;6.38;1.30;;;9.50;43.00;;;;;;5023545;28;20218;-76
2022/04/08 06:25:33;;;;;;;5.65;1.45;;;9.50;42.60;;;;;;5055433;28;20247;-76
2022/04/08 06:28:03;;;;;;;6.03;1.60;;;9.50;42.50;;;;;;5051509;28;20237;-76
2022/04/08 06:30:30;;;;;;;6.57;1.35;;;9.60;42.20;;;;;;5050348;28;20215;-76
2022/04/08 06:32:57;;;;;;;4.38;1.20;;;9.60;41.90;;;;;;5050136;28;20653;-76
2022/04/08 06:35:26;;;;;;;4.70;1.48;;;9.70;42.10;;;;;;5055676;28;20267;-76
2022/04/08 06:37:59;;;;;;;5.20;1.30;;;9.70;42.20;;;;;;5047551;28;20203;-76
2022/04/08 06:40:26;;;;;;;5.20;1.30;;;9.70;42.30;;;;;;5059506;28;20229;-76
2022/04/08 06:42:55;;;;;;;3.63;1.42;;;9.70;42.60;;;;;;5052962;28;20262;-77
2022/04/08 06:45:24;;;;;;;1.40;1.00;;;9.70;43.40;;;;;;5037863;28;20552;-76
2022/04/08 06:47:51;;;;;;;3.53;1.10;;;9.70;44.20;;;;;;5044232;28;20252;-77
2022/04/08 06:50:18;;;;;;;3.90;1.10;;;9.70;43.80;;;;;;5057920;28;20600;-76
2022/04/08 06:52:47;;;;;;;2.22;0.88;;;9.70;44.00;;;;;;5054985;28;20199;-76
2022/04/08 06:55:15;;;;;;;3.22;1.15;;;9.60;45.80;;;;;;5050637;28;20288;-76
2022/04/08 06:57:43;;;;;;;2.45;0.80;;;9.60;45.60;;;;;;5034082;28;20207;-77
2022/04/08 07:00:13;;;;;;;0.90;0.68;;;9.50;46.60;;;;;;5034789;28;20621;-77
2022/04/08 07:02:40;;;;;;;2.95;0.95;;;9.40;47.30;;;;;;5035231;28;20283;-77
2022/04/08 07:05:10;;;;;;;2.30;1.10;;;9.20;48.10;;;;;;5037416;28;20211;-77
2022/04/08 07:07:38;;;;;;;3.78;0.75;;;9.10;49.10;;;;;;5036991;28;20242;-77
2022/04/08 07:10:08;;;;;;;1.83;1.10;;;9.00;49.40;;;;;;5037385;28;20203;-77
2022/04/08 07:12:35;;;;;;;6.60;1.00;;;9.00;50.00;;;;;;5038460;28;20543;-75
2022/04/08 07:15:02;;;;;;;2.75;0.90;;;8.90;51.20;;;;;;5039207;28;20362;-77
2022/04/08 07:17:29;;;;;;;2.42;0.85;;;8.90;51.50;;;;;;5037625;28;20318;-76
2022/04/08 07:19:57;;;;;;;3.75;0.90;;;8.70;52.70;;;;;;5038847;28;20231;-77
2022/04/08 07:22:24;;;;;;;4.03;1.30;;;8.70;53.60;;;;;;5033922;28;20207;-76
2022/04/08 07:24:52;;;;;;;4.03;0.90;;;8.70;55.30;;;;;;5040053;28;20365;-76
2022/04/08 07:27:21;;;;;;;2.72;0.90;;;8.70;55.90;;;;;;5041797;28;20772;-78
2022/04/08 07:29:49;;;;;;;2.13;1.38;;;8.80;56.10;;;;;;5041996;28;20235;-76
2022/04/08 07:32:20;;;;;;;3.25;1.80;;;8.80;56.10;;;;;;5042446;28;20690;-76
2022/04/08 07:34:48;;;;;;;4.05;1.10;;;8.80;57.00;;;;;;5046104;28;20206;-76
2022/04/08 07:37:15;;;;;;;2.97;1.00;;;8.60;58.40;;;;;;5057818;28;20222;-76
2022/04/08 07:39:43;;;;;;;4.68;0.80;;;8.70;59.10;;;;;;5062966;28;20207;-78
2022/04/08 07:42:11;;;;;;;5.78;0.93;;;8.60;59.80;;;;;;5063821;28;20211;-77
2022/04/08 07:44:39;;;;;;;2.90;0.93;;;8.50;60.10;;;;;;5060220;28;20386;-76
2022/04/08 07:47:09;;;;;;;6.18;1.48;;;8.50;61.50;;;;;;5060957;28;20243;-76
2022/04/08 07:49:36;;;;;;;2.75;1.20;;;8.60;62.90;;;;;;5045408;28;20206;-76
2022/04/08 07:52:03;;;;;;;1.42;0.80;;;8.50;63.90;;;;;;5046558;28;20271;-77
2022/04/08 07:54:30;;;;;;;3.53;1.35;;;8.50;65.60;;;;;;5052484;28;20362;-76
2022/04/08 07:56:57;;;;;;;1.83;0.95;;;8.50;67.30;;;;;;5058662;28;20623;-75
2022/04/08 07:59:24;;;;;;;3.85;1.40;;;8.40;69.50;;;;;;5039168;28;20749;-77
2022/04/08 08:01:52;;;;;;;5.78;1.50;;;8.40;70.80;;;;;;5047130;28;20247;-77
2022/04/08 08:04:19;;;;;;;4.55;1.40;;;8.40;73.80;;;;;;5044131;28;20273;-76
2022/04/08 08:06:46;;;;;;;3.50;1.20;;;8.30;74.70;;;;;;5033267;28;20232;-78
2022/04/08 08:09:13;;;;;;;3.17;0.95;;;8.30;75.80;;;;;;5042306;28;20199;-77
2022/04/08 08:11:40;;;;;;;2.38;1.48;;;8.40;77.10;;;;;;5039991;28;20596;-77
2022/04/08 08:14:07;;;;;;;4.75;1.10;;;8.40;77.70;;;;;;5041088;28;20230;-77
2022/04/08 08:16:34;;;;;;;1.88;1.20;;;8.40;78.10;;;;;;5050449;28;20223;-76
2022/04/08 08:19:03;;;;;;;5.18;1.30;;;8.40;79.50;;;;;;5061752;28;20221;-76
2022/04/08 08:21:30;;;;;;;4.90;1.42;;;8.30;78.50;;;;;;5057855;28;20318;-76
2022/04/08 08:23:56;;;;;;;3.25;1.05;;;8.40;80.10;;;;;;5058733;28;20214;-77
2022/04/08 08:26:23;;;;;;;3.10;1.35;;;8.30;80.00;;;;;;5061321;28;20286;-77
2022/04/08 08:28:50;;;;;;;1.92;1.13;;;8.40;80.80;;;;;;5060733;28;20203;-77
2022/04/08 08:31:17;;;;;;;4.20;1.48;;;8.30;80.10;;;;;;5058032;28;20226;-76
2022/04/08 08:33:44;;;;;;;2.42;1.20;;;8.40;81.70;;;;;;5057153;28;20238;-76
2022/04/08 08:36:12;;;;;;;1.70;1.00;;;8.40;82.80;;;;;;5048305;28;20669;-75
2022/04/08 08:38:40;;;;;;;6.53;1.50;;;8.40;81.90;;;;;;5039096;28;20210;-76
2022/04/08 08:41:08;;;;;;;2.22;1.38;;;8.50;81.60;;;;;;5052129;28;20701;-76
2022/04/08 08:43:36;;;;;;;4.00;3.20;;;8.50;81.90;;;;;;5069361;28;20209;-77
2022/04/08 08:46:04;;;;;;;2.92;1.30;;;8.60;82.30;;;;;;5059375;28;20295;-77
2022/04/08 08:48:35;;;;;;;3.97;1.27;;;8.60;80.30;;;;;;5051201;28;20207;-79
2022/04/08 08:51:03;;;;;;;3.85;1.20;;;8.50;78.80;;;;;;5053731;28;20191;-78
2022/04/08 08:53:32;;;;;;;3.47;1.17;;;8.50;80.20;;;;;;5052850;28;20267;-78
2022/04/08 08:55:59;;;;;;;7.50;1.73;;;8.50;80.20;;;;;;5049560;28;20334;-76
2022/04/08 08:58:27;;;;;;;2.33;1.42;;;8.60;80.30;;;;;;5041568;28;20211;-77
2022/04/08 09:00:54;;;;;;;1.50;1.40;;;8.60;79.10;;;;;;5041837;28;20233;-78
2022/04/08 09:03:21;;;;;;;4.72;1.70;;;8.70;79.10;;;;;;5038264;28;20203;-77
2022/04/08 09:05:52;;;;;;;2.10;1.52;;;8.80;77.70;;;;;;5039707;28;20239;-77
2022/04/08 09:08:19;;;;;;;4.13;1.75;;;8.90;78.90;;;;;;5044333;28;20242;-77
2022/04/08 09:10:49;;;;;;;3.15;1.45;;;8.90;79.90;;;;;;5043361;28;20252;-78
2022/04/08 09:13:19;;;;;;;4.20;1.60;;;8.90;78.10;;;;;;5043713;28;20207;-77
2022/04/08 09:15:53;;;;;;;3.60;1.60;;;9.00;77.80;;;;;;5042559;28;20231;-77
2022/04/08 09:18:20;;;;;;;3.63;1.58;;;8.90;77.70;;;;;;5041302;28;20234;-76
2022/04/08 09:20:49;;;;;;;2.58;1.30;;;8.80;78.70;;;;;;5038279;28;20317;-75
2022/04/08 09:23:17;;;;;;;3.65;1.15;;;8.80;76.20;;;;;;5038346;28;20204;-76
2022/04/08 09:25:45;;;;;;;3.45;1.95;;;8.70;77.20;;;;;;5041312;28;20414;-75
2022/04/08 09:28:15;;;;;;;2.20;1.27;;;8.80;76.20;;;;;;5045032;28;20211;-76
2022/04/08 09:30:48;;;;;;;2.70;0.73;;;8.70;74.70;;;;;;5054662;28;20211;-75
2022/04/08 09:33:18;;;;;;;3.60;1.20;;;8.60;73.60;;;;;;5056046;28;20183;-74
2022/04/08 09:35:46;;;;;;;1.15;0.70;;;8.60;74.70;;;;;;5055508;28;20235;-76
2022/04/08 09:38:18;;;;;;;2.25;0.80;;;8.60;74.80;;;;;;5052301;28;20211;-76
2022/04/08 09:40:47;;;;;;;3.67;1.70;;;8.70;75.00;;;;;;5040748;28;20285;-76
2022/04/08 09:43:16;;;;;;;3.85;1.30;;;8.80;74.60;;;;;;5050160;28;20211;-77
2022/04/08 09:45:44;;;;;;;1.08;1.00;;;8.80;73.30;;;;;;5040502;28;20235;-76
2022/04/08 09:48:12;;;;;;;3.42;1.40;;;8.80;74.50;;;;;;5050554;28;20206;-76
2022/04/08 09:50:40;;;;;;;3.35;1.60;;;8.90;74.20;;;;;;5052057;28;20302;-76
2022/04/08 09:53:07;;;;;;;2.53;1.02;;;8.70;74.90;;;;;;5041886;28;20662;-76
2022/04/08 09:55:36;;;;;;;2.80;1.13;;;8.80;74.50;;;;;;5035006;28;20227;-75
2022/04/08 09:58:05;;;;;;;2.58;1.33;;;8.80;74.30;;;;;;5038277;28;20579;-76
2022/04/08 10:00:35;;;;;;;1.33;1.00;;;8.70;74.00;;;;;;5038622;28;20222;-77
2022/04/08 10:03:03;;;;;;;2.05;1.20;;;8.70;73.60;;;;;;5038183;28;20217;-78
2022/04/08 10:05:31;;;;;;;0.98;0.75;;;8.70;74.70;;;;;;5038705;28;20230;-77
2022/04/08 10:07:58;;;;;;;3.95;0.90;;;8.80;75.20;;;;;;5038996;28;20215;-75
2022/04/08 10:10:31;;;;;;;3.33;1.08;;;8.80;73.50;;;;;;5038749;28;20302;-76
2022/04/08 10:13:28;;;;;;;1.95;1.10;;;8.80;74.20;;;;;;5039764;28;20195;-76
2022/04/08 10:16:08;;;;;;;2.65;1.25;;;8.50;76.00;;;;;;5047585;28;20255;-75
2022/04/08 10:18:37;;;;;;;4.43;1.52;;;8.60;77.60;;;;;;5041760;28;20226;-77
2022/04/08 10:21:04;;;;;;;1.30;0.93;;;8.60;77.80;;;;;;5052798;28;20258;-76
2022/04/08 10:23:39;;;;;;;3.08;1.02;;;8.70;77.00;;;;;;5048197;28;20234;-76
2022/04/08 10:26:16;;;;;;;1.52;0.90;;;8.70;78.60;;;;;;5045311;28;20317;-76
2022/04/08 10:28:43;;;;;;;1.05;0.60;;;8.70;76.10;;;;;;5047519;28;20207;-75
2022/04/08 10:31:19;;;;;;;1.63;0.80;;;8.70;76.10;;;;;;5041666;28;20207;-76
2022/04/08 10:33:49;;;;;;;3.75;0.80;;;8.60;77.20;;;;;;5038714;28;20588;-76
2022/04/08 10:36:16;;;;;;;1.50;0.98;;;8.30;75.80;;;;;;5035516;28;20307;-76
2022/04/08 10:38:43;;;;;;;0.80;0.80;;;8.30;78.30;;;;;;5034287;28;20211;-78
2022/04/08 10:41:11;;;;;;;1.00;0.90;;;8.20;76.50;;;;;;5029021;28;20227;-76
2022/04/08 10:43:45;;;;;;;1.45;1.08;;;8.10;79.90;;;;;;5034757;28;20211;-75
2022/04/08 10:46:13;;;;;;;1.70;1.00;;;8.10;81.50;;;;;;5034409;28;20322;-76
2022/04/08 10:48:41;;;;;;;1.52;0.77;;;8.10;82.30;;;;;;5036907;28;20203;-76
2022/04/08 10:51:13;;;;;;;2.45;1.17;;;8.00;83.20;;;;;;5036919;28;20567;-75
2022/04/08 10:53:42;;;;;;;1.83;0.95;;;8.00;84.00;;;;;;5036514;28;20211;-77
2022/04/08 10:56:12;;;;;;;3.17;1.10;;;8.10;86.20;;;;;;5036772;28;20227;-75
2022/04/08 10:58:45;;;;;;;1.63;0.85;;;8.10;86.40;;;;;;5038728;28;20195;-77
2022/04/08 11:01:16;;;;;;;1.92;1.40;;;8.00;84.00;;;;;;5036328;28;20223;-77
2022/04/08 11:03:52;;;;;;;1.70;0.80;;;8.10;85.80;;;;;;5038541;28;20579;-77
2022/04/08 11:06:19;;;;;;;1.10;1.10;;;8.10;85.50;;;;;;5038139;28;20747;-79
2022/04/08 11:08:46;;;;;;;0.80;0.80;;;8.20;85.60;;;;;;5038359;28;20199;-77
2022/04/08 11:11:13;;;;;;;1.95;1.20;;;7.80;81.80;;;;;;5041079;28;20263;-76
2022/04/08 11:13:41;;;;;;;2.60;0.73;;;7.50;86.10;;;;;;5039355;28;20675;-76
2022/04/08 11:16:08;;;;;;;0.70;0.70;;;7.60;88.80;;;;;;5040794;28;20231;-77
2022/04/08 11:18:35;;;;;;;0.80;0.80;;;7.30;89.30;;;;;;5040891;28;20211;-77
2022/04/08 11:21:04;;;;;;;1.85;0.60;;;7.20;90.70;;;;;;5036468;28;20249;-77
2022/04/08 11:23:33;;;;;;;0.60;0.60;;;7.00;92.30;;;;;;5037589;28;20542;-78
2022/04/08 11:26:02;;;;;;;1.20;1.10;;;6.80;94.00;;;;;;5036666;28;20307;-77
2022/04/08 11:28:29;;;;;;;0.60;0.60;;;6.70;95.20;;;;;;5042465;28;20207;-77
2022/04/08 11:30:57;;;;;;;0.60;0.60;;;6.60;93.00;;;;;;5044372;28;20211;-77
2022/04/08 11:33:27;;;;;;;1.55;1.10;;;6.60;93.20;;;;;;5041547;28;20262;-77
2022/04/08 11:35:58;;;;;;;1.30;0.98;;;6.60;93.90;;;;;;5037688;28;20338;-76
2022/04/08 11:38:28;;;;;;;1.00;0.75;;;6.60;95.20;;;;;;5038619;28;20215;-76
2022/04/08 11:40:55;;;;;;;1.13;1.02;;;6.50;94.70;;;;;;5038665;28;20197;-76
2022/04/08 11:43:23;;;;;;;1.98;1.10;;;6.50;96.30;;;;;;5038959;28;20203;-77
2022/04/08 11:45:52;;;;;;;1.25;1.05;;;6.60;97.50;;;;;;5041667;28;20219;-77
2022/04/08 11:48:20;;;;;;;1.40;0.70;;;6.70;97.10;;;;;;5048332;28;20264;-76
2022/04/08 11:50:51;;;;;;;2.78;1.70;;;6.70;95.90;;;;;;5047768;28;20204;-77
2022/04/08 11:53:19;;;;;;;1.25;0.88;;;6.70;97.70;;;;;;5048365;28;20188;-77
2022/04/08 11:55:59;;;;;;;1.75;1.35;;;6.60;98.50;;;;;;5044358;28;20231;-76
2022/04/08 11:58:27;;;;;;;2.38;1.10;;;6.50;99.10;;;;;;5041048;28;20302;-77
2022/04/08 12:00:54;;;;;;;1.50;1.20;;;6.60;99.90;;;;;;5037731;28;20267;-78
2022/04/08 12:03:24;;;;;;;1.85;0.90;;;6.60;99.50;;;;;;5036756;28;20729;-77
2022/04/08 12:05:52;;;;;;;0.98;0.70;;;6.50;98.00;;;;;;5036607;28;20777;-77
2022/04/08 12:08:19;;;;;;;0.93;0.70;;;6.70;98.20;;;;;;5036992;28;20214;-77
2022/04/08 12:10:52;;;;;;;0.70;0.70;;;6.40;95.70;;;;;;5037040;28;20215;-78
2022/04/08 12:13:22;;;;;;;3.03;0.90;;;6.50;96.70;;;;;;5031993;28;20199;-77
2022/04/08 12:15:51;;;;;;;1.02;0.77;;;6.40;96.50;;;;;;5020467;28;20259;-78
2022/04/08 12:18:22;;;;;;;1.98;0.65;;;6.50;97.50;;;;;;5038623;28;20614;-77
2022/04/08 12:20:54;;;;;;;1.17;0.90;;;6.50;96.10;;;;;;5038558;28;20545;-77
2022/04/08 12:23:22;;;;;;;2.65;1.02;;;6.40;96.30;;;;;;5034797;28;20253;-78
2022/04/08 12:25:53;;;;;;;1.50;0.85;;;6.50;97.80;;;;;;5034098;28;20757;-78
2022/04/08 12:30:54;;;;;;;1.05;0.80;;;6.40;96.70;;;;;;5037691;28;20216;-80
2022/04/08 12:33:21;;;;;;;0.68;0.65;;;6.40;97.50;;;;;;5036471;28;20718;-81
2022/04/08 12:35:49;;;;;;;2.55;1.10;;;6.50;99.30;;;;;;5040243;28;20207;-79
2022/04/08 12:38:19;;;;;;;1.95;0.70;;;6.60;99.20;;;;;;5023665;28;20235;-80
2022/04/08 12:40:47;;;;;;;1.00;0.90;;;6.60;98.60;;;;;;5023392;28;20204;-81
2022/04/08 12:43:14;;;;;;;2.88;1.20;;;6.30;94.90;;;;;;5026853;28;20266;-80
2022/04/08 12:45:41;;;;;;;1.35;1.20;;;6.20;97.40;;;;;;5028011;28;20234;-80
2022/04/08 12:48:09;;;;;;;1.80;1.67;;;6.20;98.60;;;;;;5029696;28;20296;-81
2022/04/08 12:50:36;;;;;;;1.45;1.35;;;6.40;99.90;;;;;;5030082;28;20230;-82
2022/04/08 12:53:04;;;;;;;1.02;1.00;;;6.30;99.90;;;;;;5006787;28;20215;-80
2022/04/08 12:55:31;;;;;;;1.70;1.40;;;6.30;99.90;;;;;;5021996;28;20208;-81
2022/04/08 12:57:58;;;;;;;2.40;1.45;;;6.40;99.90;;;;;;5027984;28;20223;-79
2022/04/08 13:00:25;;;;;;;2.67;1.50;;;6.50;99.90;;;;;;5028043;28;20641;-80
2022/04/08 13:02:53;;;;;;;1.30;1.20;;;6.50;99.90;;;;;;5028489;28;20231;-78
2022/04/08 13:05:21;;;;;;;2.35;1.30;;;6.20;97.40;;;;;;5030018;28;20506;-81